createdAt,value
2022-09-23T00:00:08.201Z,6.60
2022-09-23T00:05:31.774Z,5.10
2022-09-23T00:10:38.806Z,5.90
2022-09-23T00:15:42.089Z,5.80
2022-09-23T00:20:49.807Z,6.00
2022-09-23T00:26:04.671Z,6.00
2022-09-23T00:31:11.977Z,6.10
2022-09-23T00:36:16.476Z,5.30
2022-09-23T00:41:19.951Z,4.90
2022-09-23T00:46:52.667Z,5.40
2022-09-23T00:52:07.723Z,4.70
2022-09-23T00:57:13.017Z,5.60
2022-09-23T01:02:17.954Z,4.30
2022-09-23T01:07:22.126Z,4.60
2022-09-23T01:12:59.316Z,4.80
2022-09-23T01:18:14.373Z,5.00
2022-09-23T01:23:54.466Z,4.10
2022-09-23T01:29:16.301Z,4.80
2022-09-23T01:34:51.391Z,3.90
2022-09-23T01:40:07.284Z,4.20
2022-09-23T01:45:18.171Z,3.90
2022-09-23T01:50:53.900Z,4.30
2022-09-23T01:56:03.922Z,4.60
2022-09-23T02:01:09.471Z,4.20
2022-09-23T02:06:26.352Z,4.40
2022-09-23T02:11:36.642Z,4.10
2022-09-23T02:16:47.903Z,4.70
2022-09-23T02:21:55.774Z,4.80
2022-09-23T02:27:07.888Z,5.10
2022-09-23T02:32:16.169Z,6.70
2022-09-23T02:37:37.542Z,7.20
2022-09-23T02:43:13.054Z,7.20
2022-09-23T02:48:29.532Z,5.30
2022-09-23T02:53:36.834Z,5.10
2022-09-23T02:58:40.046Z,5.00
2022-09-23T03:03:55.591Z,4.60
2022-09-23T03:09:13.421Z,4.20
2022-09-23T03:14:22.325Z,6.10
2022-09-23T03:19:34.312Z,5.70
2022-09-23T03:24:40.311Z,5.60
2022-09-23T03:29:47.692Z,7.00
2022-09-23T03:34:54.792Z,5.40
2022-09-23T03:40:09.389Z,5.30
2022-09-23T03:45:18.674Z,5.80
2022-09-23T03:50:22.502Z,5.20
2022-09-23T03:55:25.746Z,6.20
2022-09-23T04:00:29.033Z,5.80
2022-09-23T04:05:32.715Z,6.00
2022-09-23T04:10:36.190Z,6.40
2022-09-23T04:15:41.255Z,5.70
2022-09-23T04:20:44.467Z,6.30
2022-09-23T04:25:48.707Z,6.70
2022-09-23T04:30:51.919Z,6.90
2022-09-23T04:35:56.027Z,7.70
2022-09-23T04:40:59.248Z,8.60
2022-09-23T04:46:05.022Z,7.80
2022-09-23T04:51:12.130Z,9.20
2022-09-23T04:56:26.912Z,8.00
2022-09-23T05:01:35.362Z,8.70
2022-09-23T05:06:38.615Z,9.70
2022-09-23T05:11:41.930Z,11.10
2022-09-23T05:16:45.287Z,9.00
2022-09-23T05:21:48.471Z,7.90
2022-09-23T05:26:52.453Z,6.60
2022-09-23T05:31:55.868Z,7.40
2022-09-23T05:36:59.171Z,8.50
2022-09-23T05:42:02.715Z,8.50
2022-09-23T05:47:06.813Z,6.90
2022-09-23T05:52:10.032Z,9.00
2022-09-23T05:57:13.209Z,9.70
2022-09-23T06:02:16.502Z,9.80
2022-09-23T06:07:19.969Z,7.60
2022-09-23T06:12:23.480Z,7.50
2022-09-23T06:17:29.732Z,8.40
2022-09-23T06:22:36.084Z,7.10
2022-09-23T06:27:43.535Z,5.50
2022-09-23T06:32:54.069Z,4.00
2022-09-23T06:37:58.277Z,3.90
2022-09-23T06:43:02.661Z,4.50
2022-09-23T06:48:08.815Z,4.90
2022-09-23T06:53:13.075Z,5.20
2022-09-23T06:58:17.741Z,5.00
2022-09-23T07:03:21.023Z,5.60
2022-09-23T07:08:26.862Z,4.80
2022-09-23T07:13:30.696Z,4.60
2022-09-23T07:18:37.524Z,4.60
2022-09-23T07:23:43.211Z,4.40
2022-09-23T07:28:46.954Z,4.10
2022-09-23T07:33:50.257Z,3.80
2022-09-23T07:38:53.447Z,4.80
2022-09-23T07:44:00.719Z,4.00
2022-09-23T07:49:05.983Z,3.00
2022-09-23T07:54:14.021Z,3.60
2022-09-23T07:59:19.014Z,4.00
2022-09-23T08:04:26.893Z,4.50
2022-09-23T08:09:41.748Z,4.60
2022-09-23T08:14:45.819Z,3.30
2022-09-23T08:19:49.187Z,2.70
2022-09-23T08:24:54.880Z,3.10
2022-09-23T08:29:59.754Z,2.80
2022-09-23T08:35:03.582Z,2.60
2022-09-23T08:40:07.495Z,2.70
2022-09-23T08:45:26.242Z,3.20
2022-09-23T08:50:57.759Z,2.60
2022-09-23T08:56:07.514Z,1.40
2022-09-23T09:01:26.911Z,2.00
2022-09-23T09:06:52.424Z,2.00
2022-09-23T09:12:16.012Z,1.60
2022-09-23T09:17:25.070Z,2.20
2022-09-23T09:22:38.559Z,1.60
2022-09-23T09:27:43.249Z,1.60
2022-09-23T09:32:55.308Z,1.40
2022-09-23T09:37:58.745Z,1.40
2022-09-23T09:43:06.127Z,1.50
2022-09-23T09:48:17.952Z,1.60
2022-09-23T09:53:25.836Z,1.20
2022-09-23T09:58:39.313Z,1.20
2022-09-23T10:03:46.416Z,1.10
2022-09-23T10:09:04.700Z,1.10
2022-09-23T10:14:19.875Z,1.30
2022-09-23T10:19:29.057Z,0.80
2022-09-23T10:24:37.950Z,1.00
2022-09-23T10:29:50.856Z,0.80
2022-09-23T10:35:09.416Z,1.00
2022-09-23T10:40:55.326Z,0.50
2022-09-23T10:46:24.232Z,0.40
2022-09-23T10:52:04.451Z,0.90
2022-09-23T10:57:38.378Z,0.50
2022-09-23T11:03:00.348Z,0.60
2022-09-23T11:08:18.614Z,0.50
2022-09-23T11:13:27.969Z,0.50
2022-09-23T11:19:13.687Z,0.70
2022-09-23T11:24:41.024Z,0.70
2022-09-23T11:30:07.666Z,0.90
2022-09-23T11:35:20.898Z,0.70
2022-09-23T11:40:41.081Z,0.50
2022-09-23T11:45:57.067Z,0.40
2022-09-23T11:51:03.367Z,0.40
2022-09-23T11:56:10.511Z,0.40
2022-09-23T12:01:30.098Z,0.50
2022-09-23T12:06:43.480Z,0.50
2022-09-23T12:11:52.112Z,0.50
2022-09-23T12:17:04.760Z,0.60
2022-09-23T12:22:18.256Z,1.00
2022-09-23T12:27:31.266Z,3.40
2022-09-23T12:32:34.785Z,2.10
2022-09-23T12:37:39.260Z,1.70
2022-09-23T12:42:46.622Z,1.40
2022-09-23T12:47:51.090Z,1.10
2022-09-23T12:52:54.665Z,1.80
2022-09-23T12:57:57.909Z,2.10
2022-09-23T13:03:30.842Z,1.40
2022-09-23T13:08:39.664Z,0.70
2022-09-23T13:13:45.909Z,0.80
2022-09-23T13:19:00.046Z,0.90
2022-09-23T13:24:23.762Z,0.90
2022-09-23T13:29:42.921Z,1.10
2022-09-23T13:35:16.220Z,0.70
2022-09-23T13:40:24.534Z,0.70
2022-09-23T13:45:31.253Z,0.70
2022-09-23T13:50:38.824Z,0.70
2022-09-23T13:55:41.996Z,0.80
2022-09-23T14:00:46.605Z,0.70
2022-09-23T14:05:52.041Z,1.00
2022-09-23T14:10:57.823Z,1.00
2022-09-23T14:16:04.568Z,0.70
2022-09-23T14:21:37.230Z,1.10
2022-09-23T14:26:44.654Z,1.20
2022-09-23T14:32:04.922Z,1.00
2022-09-23T14:37:38.066Z,0.80
2022-09-23T14:42:46.741Z,0.80
2022-09-23T14:48:03.512Z,0.70
2022-09-23T14:53:45.530Z,1.10
2022-09-23T14:58:54.808Z,2.00
2022-09-23T15:03:59.953Z,3.10
2022-09-23T15:09:07.226Z,3.50
2022-09-23T15:14:35.961Z,2.70
2022-09-23T15:19:37.593Z,3.00
2022-09-23T15:24:45.581Z,2.80
2022-09-23T15:29:50.532Z,3.20
2022-09-23T15:34:54.194Z,2.60
2022-09-23T15:39:57.540Z,2.50
2022-09-23T15:45:01.644Z,2.40
2022-09-23T15:50:07.986Z,1.50
2022-09-23T15:55:22.346Z,1.50
2022-09-23T16:00:28.710Z,2.00
2022-09-23T16:05:39.615Z,2.00
2022-09-23T16:10:43.671Z,5.10
2022-09-23T16:15:47.380Z,7.40
2022-09-23T16:20:51.575Z,6.40
2022-09-23T16:25:54.862Z,7.60
2022-09-23T16:30:58.332Z,11.80
2022-09-23T16:36:02.417Z,8.20
2022-09-23T16:41:07.218Z,8.10
2022-09-23T16:46:13.028Z,8.30
2022-09-23T16:51:21.754Z,9.60
2022-09-23T16:56:29.530Z,7.50
2022-09-23T17:01:51.310Z,6.70
2022-09-23T17:06:56.262Z,6.50
2022-09-23T17:12:05.617Z,7.20
2022-09-23T17:17:08.995Z,7.40
2022-09-23T17:22:12.242Z,6.10
2022-09-23T17:27:17.550Z,4.70
2022-09-23T17:32:21.438Z,5.10
2022-09-23T17:37:24.663Z,3.50
2022-09-23T17:42:28.296Z,4.00
2022-09-23T17:47:33.676Z,4.60
2022-09-23T17:52:37.605Z,5.40
2022-09-23T17:57:50.606Z,5.70
2022-09-23T18:02:54.257Z,5.60
2022-09-23T18:07:57.626Z,4.80
2022-09-23T18:13:00.868Z,4.70
2022-09-23T18:18:06.138Z,6.50
2022-09-23T18:23:09.485Z,6.10
2022-09-23T18:28:12.758Z,6.90
2022-09-23T18:33:15.947Z,6.80
2022-09-23T18:38:19.347Z,6.00
2022-09-23T18:43:33.804Z,6.80
2022-09-23T18:48:57.752Z,7.90
2022-09-23T18:54:04.183Z,11.10
2022-09-23T18:59:09.738Z,12.40
2022-09-23T19:04:19.163Z,11.60
2022-09-23T19:09:23.052Z,13.40
2022-09-23T19:14:27.414Z,7.20
2022-09-23T19:19:30.857Z,6.70
2022-09-23T19:24:34.232Z,7.50
2022-09-23T19:29:39.493Z,9.10
2022-09-23T19:34:43.908Z,9.90
2022-09-23T19:39:47.987Z,9.20
2022-09-23T19:44:53.582Z,11.10
2022-09-23T19:49:56.946Z,11.30
2022-09-23T19:55:00.431Z,11.80
2022-09-23T20:00:05.040Z,12.40
2022-09-23T20:05:11.892Z,13.50
2022-09-23T20:10:15.602Z,15.70
2022-09-23T20:15:23.200Z,16.60
2022-09-23T20:20:26.425Z,16.90
2022-09-23T20:25:49.631Z,16.10
2022-09-23T20:30:59.611Z,18.80
2022-09-23T20:36:03.146Z,15.90
2022-09-23T20:41:07.165Z,16.00
2022-09-23T20:46:10.407Z,19.80
2022-09-23T20:51:13.616Z,17.90
2022-09-23T20:56:20.808Z,19.30
2022-09-23T21:01:24.009Z,18.70
2022-09-23T21:06:27.302Z,16.60
2022-09-23T21:11:32.343Z,14.20
2022-09-23T21:16:35.627Z,19.80
2022-09-23T21:21:39.472Z,14.60
2022-09-23T21:26:44.916Z,10.90
2022-09-23T21:31:50.054Z,9.60
2022-09-23T21:36:55.700Z,7.10
2022-09-23T21:41:59.121Z,6.40
2022-09-23T21:47:02.474Z,8.80
2022-09-23T21:52:08.314Z,8.20
2022-09-23T21:57:12.594Z,9.20
2022-09-23T22:02:16.376Z,10.00
2022-09-23T22:07:20.608Z,13.60
2022-09-23T22:12:24.290Z,12.60
2022-09-23T22:17:30.487Z,10.90
2022-09-23T22:22:33.770Z,11.50
2022-09-23T22:27:56.800Z,8.40
2022-09-23T22:33:02.103Z,8.60
2022-09-23T22:38:05.197Z,8.30
2022-09-23T22:43:08.754Z,8.20
2022-09-23T22:48:12.452Z,9.30
2022-09-23T22:53:15.980Z,9.90
2022-09-23T22:58:31.672Z,8.80
2022-09-23T23:03:36.533Z,10.40
2022-09-23T23:08:39.778Z,9.90
2022-09-23T23:13:43.597Z,8.80
2022-09-23T23:18:47.958Z,8.00
2022-09-23T23:23:53.419Z,6.70
2022-09-23T23:28:57.478Z,7.60
2022-09-23T23:34:00.678Z,7.20
2022-09-23T23:39:04.613Z,7.60
2022-09-23T23:44:12.679Z,7.30
2022-09-23T23:49:16.560Z,6.50
2022-09-23T23:54:19.737Z,7.60
2022-09-23T23:59:23.342Z,7.60
